createdAt,value
2022-10-19T00:00:01.876Z,19.55
2022-10-19T00:03:27.586Z,20.90
2022-10-19T00:06:33.118Z,20.40
2022-10-19T00:09:36.904Z,20.37
2022-10-19T00:12:39.698Z,19.83
2022-10-19T00:15:42.360Z,19.37
2022-10-19T00:18:45.551Z,19.15
2022-10-19T00:24:57.656Z,18.70
2022-10-19T00:28:01.025Z,19.17
2022-10-19T00:31:06.239Z,18.95
2022-10-19T00:34:09.678Z,19.15
2022-10-19T00:37:12.548Z,19.62
2022-10-19T00:40:15.208Z,19.37
2022-10-19T00:43:21.548Z,19.83
2022-10-19T00:46:25.926Z,20.08
2022-10-19T00:49:34.126Z,19.02
2022-10-19T00:52:39.353Z,19.23
2022-10-19T00:55:43.093Z,19.87
2022-10-19T00:58:46.245Z,20.08
2022-10-19T01:04:52.964Z,19.03
2022-10-19T01:07:57.515Z,19.08
2022-10-19T01:11:09.051Z,18.73
2022-10-19T01:14:37.731Z,18.42
2022-10-19T01:17:40.316Z,19.00
2022-10-19T01:21:12.894Z,19.37
2022-10-19T01:24:38.374Z,19.35
2022-10-19T01:28:14.663Z,20.42
2022-10-19T01:31:41.670Z,18.85
2022-10-19T01:35:27.088Z,18.73
2022-10-19T01:38:52.808Z,18.77
2022-10-19T01:42:01.671Z,19.35
2022-10-19T01:45:11.859Z,19.05
2022-10-19T01:48:22.035Z,19.50
2022-10-19T01:51:34.362Z,19.50
2022-10-19T01:54:42.685Z,18.33
2022-10-19T01:57:55.904Z,17.85
2022-10-19T02:01:02.843Z,18.65
2022-10-19T02:04:06.108Z,18.42
2022-10-19T02:07:11.111Z,18.98
2022-10-19T02:13:23.024Z,19.98
2022-10-19T02:16:40.142Z,19.10
2022-10-19T02:19:43.677Z,19.37
2022-10-19T02:22:46.363Z,18.75
2022-10-19T02:25:49.278Z,19.55
2022-10-19T02:28:55.088Z,18.08
2022-10-19T02:31:57.866Z,18.27
2022-10-19T02:35:00.590Z,19.92
2022-10-19T02:38:05.832Z,18.75
2022-10-19T02:41:15.383Z,18.42
2022-10-19T02:44:29.842Z,18.87
2022-10-19T02:47:37.590Z,18.90
2022-10-19T02:50:45.957Z,19.15
2022-10-19T02:53:48.693Z,20.30
2022-10-19T02:56:51.429Z,18.12
2022-10-19T02:59:54.154Z,18.87
2022-10-19T03:02:56.823Z,19.02
2022-10-19T03:05:59.426Z,19.25
2022-10-19T03:09:02.163Z,18.40
2022-10-19T03:12:04.928Z,18.23
2022-10-19T03:15:08.448Z,17.98
2022-10-19T03:18:11.165Z,17.48
2022-10-19T03:21:13.997Z,18.37
2022-10-19T03:24:16.869Z,18.48
2022-10-19T03:27:19.602Z,17.58
2022-10-19T03:30:22.834Z,18.55
2022-10-19T03:36:35.601Z,17.65
2022-10-19T03:39:38.294Z,18.48
2022-10-19T03:42:41.004Z,17.83
2022-10-19T03:45:47.424Z,18.17
2022-10-19T03:48:50.108Z,17.52
2022-10-19T03:51:52.924Z,17.12
2022-10-19T03:54:55.525Z,17.45
2022-10-19T03:57:58.239Z,17.40
2022-10-19T04:01:01.209Z,18.67
2022-10-19T04:04:07.456Z,18.50
2022-10-19T04:07:10.118Z,17.70
2022-10-19T04:10:12.844Z,16.00
2022-10-19T04:13:15.439Z,17.58
2022-10-19T04:16:36.567Z,18.08
2022-10-19T04:19:39.214Z,18.23
2022-10-19T04:22:41.924Z,17.62
2022-10-19T04:25:44.555Z,17.58
2022-10-19T04:28:47.384Z,17.48
2022-10-19T04:31:52.134Z,17.12
2022-10-19T04:34:54.928Z,17.77
2022-10-19T04:37:59.021Z,17.62
2022-10-19T04:41:10.076Z,17.52
2022-10-19T04:44:12.700Z,16.95
2022-10-19T04:47:15.404Z,16.20
2022-10-19T04:50:18.058Z,17.40
2022-10-19T04:53:20.952Z,17.00
2022-10-19T04:56:27.768Z,16.70
2022-10-19T04:59:30.503Z,17.00
2022-10-19T05:02:33.514Z,17.00
2022-10-19T05:05:36.378Z,17.90
2022-10-19T05:08:41.930Z,17.40
2022-10-19T05:11:44.783Z,16.83
2022-10-19T05:14:47.410Z,17.08
2022-10-19T05:17:50.144Z,18.25
2022-10-19T05:21:04.240Z,18.00
2022-10-19T05:24:07.135Z,17.73
2022-10-19T05:27:09.744Z,18.05
2022-10-19T05:30:14.425Z,17.92
2022-10-19T05:33:17.037Z,18.70
2022-10-19T05:36:38.771Z,17.73
2022-10-19T05:39:41.619Z,16.90
2022-10-19T05:42:44.584Z,16.30
2022-10-19T05:45:47.312Z,16.58
2022-10-19T05:48:50.156Z,16.77
2022-10-19T05:51:55.116Z,16.33
2022-10-19T05:54:58.503Z,16.52
2022-10-19T05:58:01.131Z,16.30
2022-10-19T06:01:04.250Z,16.80
2022-10-19T06:04:07.402Z,15.43
2022-10-19T06:07:09.949Z,16.02
2022-10-19T06:10:15.909Z,15.15
2022-10-19T06:13:19.561Z,15.00
2022-10-19T06:16:24.195Z,14.07
2022-10-19T06:19:26.622Z,14.98
2022-10-19T06:22:29.809Z,14.80
2022-10-19T06:25:34.889Z,13.70
2022-10-19T06:28:39.998Z,15.43
2022-10-19T06:31:42.732Z,14.75
2022-10-19T06:34:45.720Z,14.13
2022-10-19T06:37:48.512Z,13.85
2022-10-19T06:40:51.568Z,13.60
2022-10-19T06:43:55.274Z,13.77
2022-10-19T06:46:58.587Z,13.48
2022-10-19T06:50:01.613Z,13.20
2022-10-19T06:53:04.563Z,13.62
2022-10-19T06:56:07.470Z,14.00
2022-10-19T06:59:13.015Z,13.60
2022-10-19T07:02:16.023Z,12.80
2022-10-19T07:05:19.100Z,12.55
2022-10-19T07:08:21.796Z,13.02
2022-10-19T07:14:28.623Z,11.73
2022-10-19T07:17:31.859Z,11.45
2022-10-19T07:20:34.471Z,11.77
2022-10-19T07:23:39.204Z,11.20
2022-10-19T07:26:41.663Z,11.35
2022-10-19T07:32:47.295Z,11.25
2022-10-19T07:35:50.292Z,11.23
2022-10-19T07:38:52.871Z,12.32
2022-10-19T07:41:55.764Z,10.60
2022-10-19T07:44:58.340Z,10.32
2022-10-19T07:48:01.376Z,10.80
2022-10-19T07:51:06.628Z,10.32
2022-10-19T07:54:09.520Z,9.35
2022-10-19T07:57:12.496Z,12.70
2022-10-19T08:00:17.087Z,11.93
2022-10-19T08:06:44.631Z,9.50
2022-10-19T08:09:53.231Z,8.80
2022-10-19T08:12:56.556Z,9.20
2022-10-19T08:15:59.292Z,8.93
2022-10-19T08:19:05.766Z,8.20
2022-10-19T08:22:09.227Z,7.53
2022-10-19T08:25:11.965Z,8.23
2022-10-19T08:28:14.986Z,7.75
2022-10-19T08:31:21.615Z,7.80
2022-10-19T08:34:25.260Z,7.03
2022-10-19T08:37:43.838Z,7.07
2022-10-19T08:40:47.575Z,7.00
2022-10-19T08:44:21.823Z,6.57
2022-10-19T08:47:42.979Z,6.22
2022-10-19T08:50:47.032Z,6.90
2022-10-19T08:53:57.227Z,7.80
2022-10-19T08:57:24.510Z,7.32
2022-10-19T09:03:55.287Z,6.00
2022-10-19T09:07:31.269Z,5.90
2022-10-19T09:10:40.641Z,7.07
2022-10-19T09:14:05.844Z,6.12
2022-10-19T09:17:14.867Z,4.62
2022-10-19T09:20:25.274Z,6.00
2022-10-19T09:23:40.666Z,7.90
2022-10-19T09:26:52.352Z,5.97
2022-10-19T09:30:02.503Z,5.15
2022-10-19T09:33:15.231Z,4.87
2022-10-19T09:36:22.901Z,4.70
2022-10-19T09:39:31.105Z,4.75
2022-10-19T09:42:36.746Z,4.90
2022-10-19T09:45:50.101Z,4.50
2022-10-19T09:48:53.391Z,5.65
2022-10-19T09:51:56.511Z,5.05
2022-10-19T09:55:18.281Z,4.68
2022-10-19T09:58:24.747Z,4.70
2022-10-19T10:01:41.504Z,4.20
2022-10-19T10:05:07.262Z,4.32
2022-10-19T10:08:16.827Z,4.50
2022-10-19T10:11:24.025Z,4.47
2022-10-19T10:14:33.432Z,4.65
2022-10-19T10:17:37.342Z,4.85
2022-10-19T10:24:12.488Z,4.40
2022-10-19T10:27:31.847Z,3.30
2022-10-19T10:30:37.252Z,3.00
2022-10-19T10:33:45.115Z,3.10
2022-10-19T10:36:53.973Z,8.95
2022-10-19T10:40:01.926Z,6.75
2022-10-19T10:43:13.345Z,3.22
2022-10-19T10:46:20.456Z,1.98
2022-10-19T10:49:54.494Z,2.40
2022-10-19T10:53:01.966Z,1.95
2022-10-19T10:56:06.745Z,2.00
2022-10-19T10:59:19.832Z,1.65
2022-10-19T11:02:48.585Z,1.85
2022-10-19T11:05:59.407Z,1.98
2022-10-19T11:09:20.621Z,2.10
2022-10-19T11:12:52.203Z,1.83
2022-10-19T11:16:05.031Z,2.08
2022-10-19T11:19:27.376Z,1.90
2022-10-19T11:25:57.008Z,1.75
2022-10-19T11:29:28.006Z,1.70
2022-10-19T11:32:38.845Z,1.70
2022-10-19T11:35:54.273Z,2.22
2022-10-19T11:39:19.461Z,1.73
2022-10-19T11:42:58.524Z,1.75
2022-10-19T11:46:09.435Z,3.60
2022-10-19T11:49:36.261Z,3.22
2022-10-19T11:53:09.629Z,2.00
2022-10-19T11:56:18.483Z,1.40
2022-10-19T11:59:47.002Z,1.67
2022-10-19T12:03:31.451Z,1.90
2022-10-19T12:06:45.416Z,1.48
2022-10-19T12:10:03.145Z,1.70
2022-10-19T12:13:11.790Z,1.70
2022-10-19T12:16:15.177Z,1.62
2022-10-19T12:19:22.638Z,1.90
2022-10-19T12:22:29.009Z,1.77
2022-10-19T12:25:33.760Z,1.50
2022-10-19T12:28:40.350Z,1.40
2022-10-19T12:31:46.915Z,1.77
2022-10-19T12:35:00.338Z,1.90
2022-10-19T12:38:28.964Z,1.45
2022-10-19T12:41:53.172Z,1.80
2022-10-19T12:45:02.337Z,2.10
2022-10-19T12:48:19.058Z,1.42
2022-10-19T12:51:22.006Z,2.72
2022-10-19T12:57:30.304Z,3.50
2022-10-19T13:00:35.664Z,1.85
2022-10-19T13:03:41.338Z,1.80
2022-10-19T13:07:03.757Z,1.73
2022-10-19T13:10:18.900Z,2.20
2022-10-19T13:13:52.365Z,2.10
2022-10-19T13:17:03.426Z,1.80
2022-10-19T13:20:15.154Z,2.10
2022-10-19T13:23:18.088Z,1.80
2022-10-19T13:26:32.979Z,2.37
2022-10-19T13:29:38.913Z,2.30
2022-10-19T13:32:45.326Z,1.92
2022-10-19T13:35:49.084Z,1.60
2022-10-19T13:39:02.681Z,2.05
2022-10-19T13:42:05.729Z,2.25
2022-10-19T13:45:22.402Z,1.87
2022-10-19T13:48:49.088Z,2.20
2022-10-19T13:52:14.035Z,2.50
2022-10-19T13:55:38.517Z,2.55
2022-10-19T13:58:53.140Z,2.72
2022-10-19T14:02:28.266Z,2.65
2022-10-19T14:05:42.843Z,3.58
2022-10-19T14:09:19.707Z,3.65
2022-10-19T14:12:25.920Z,3.10
2022-10-19T14:15:34.027Z,3.50
2022-10-19T14:18:37.693Z,3.62
2022-10-19T14:21:41.253Z,3.87
2022-10-19T14:24:44.087Z,3.58
2022-10-19T14:27:48.502Z,4.10
2022-10-19T14:31:02.982Z,3.37
2022-10-19T14:34:09.399Z,3.50
2022-10-19T14:37:24.495Z,6.35
2022-10-19T14:40:29.088Z,5.32
2022-10-19T14:43:34.236Z,4.05
2022-10-19T14:46:37.145Z,4.15
2022-10-19T14:52:42.417Z,5.50
2022-10-19T14:55:46.269Z,3.87
2022-10-19T14:59:03.361Z,5.25
2022-10-19T15:02:18.469Z,3.75
2022-10-19T15:05:25.055Z,3.78
2022-10-19T15:08:43.757Z,6.35
2022-10-19T15:11:47.090Z,5.80
2022-10-19T15:14:50.008Z,4.22
2022-10-19T15:18:16.351Z,3.92
2022-10-19T15:21:30.358Z,7.75
2022-10-19T15:24:34.559Z,5.12
2022-10-19T15:27:37.239Z,3.30
2022-10-19T15:30:39.965Z,3.72
2022-10-19T15:33:53.277Z,4.15
2022-10-19T15:40:14.202Z,4.00
2022-10-19T15:43:34.216Z,3.80
2022-10-19T15:46:49.417Z,3.78
2022-10-19T15:49:55.770Z,3.67
2022-10-19T15:52:59.559Z,4.18
2022-10-19T15:59:17.212Z,3.70
2022-10-19T16:02:19.958Z,4.60
2022-10-19T16:05:24.937Z,3.90
2022-10-19T16:08:27.671Z,4.15
2022-10-19T16:11:32.401Z,4.50
2022-10-19T16:14:36.612Z,4.18
2022-10-19T16:17:40.340Z,4.03
2022-10-19T16:20:43.329Z,3.90
2022-10-19T16:26:48.557Z,4.00
2022-10-19T16:29:51.268Z,3.53
2022-10-19T16:32:53.928Z,4.05
2022-10-19T16:35:56.758Z,3.80
2022-10-19T16:39:01.060Z,3.72
2022-10-19T16:42:03.992Z,3.75
2022-10-19T16:45:07.195Z,3.80
2022-10-19T16:48:12.953Z,3.20
2022-10-19T16:51:21.621Z,3.55
2022-10-19T16:54:26.780Z,3.33
2022-10-19T16:57:29.609Z,3.87
2022-10-19T17:00:32.602Z,3.62
2022-10-19T17:03:35.836Z,3.70
2022-10-19T17:06:38.834Z,3.72
2022-10-19T17:09:42.932Z,3.40
2022-10-19T17:12:46.136Z,3.67
2022-10-19T17:15:48.877Z,4.20
2022-10-19T17:18:55.047Z,3.83
2022-10-19T17:21:59.103Z,3.80
2022-10-19T17:25:02.060Z,3.45
2022-10-19T17:28:04.936Z,4.93
2022-10-19T17:31:11.087Z,4.82
2022-10-19T17:34:13.961Z,5.28
2022-10-19T17:37:16.705Z,4.30
2022-10-19T17:40:19.373Z,4.50
2022-10-19T17:43:22.065Z,4.37
2022-10-19T17:46:30.793Z,3.65
2022-10-19T17:49:33.471Z,5.07
2022-10-19T17:52:36.202Z,5.35
2022-10-19T17:55:38.942Z,3.72
2022-10-19T17:58:41.998Z,4.45
2022-10-19T18:04:47.693Z,4.47
2022-10-19T18:07:51.364Z,4.15
2022-10-19T18:11:03.488Z,4.05
2022-10-19T18:14:08.220Z,4.50
2022-10-19T18:17:13.270Z,4.47
2022-10-19T18:20:15.697Z,5.30
2022-10-19T18:23:18.969Z,6.18
2022-10-19T18:26:24.066Z,4.90
2022-10-19T18:29:29.368Z,4.35
2022-10-19T18:32:31.888Z,4.97
2022-10-19T18:38:50.463Z,4.70
2022-10-19T18:41:56.382Z,4.32
2022-10-19T18:44:58.842Z,4.80
2022-10-19T18:48:02.314Z,4.93
2022-10-19T18:51:07.391Z,4.22
2022-10-19T18:54:11.307Z,7.72
2022-10-19T18:57:13.802Z,6.57
2022-10-19T19:00:16.802Z,7.78
2022-10-19T19:03:20.598Z,5.40
2022-10-19T19:06:26.584Z,4.60
2022-10-19T19:09:29.642Z,4.18
2022-10-19T19:12:32.889Z,4.62
2022-10-19T19:15:35.544Z,4.68
2022-10-19T19:18:38.936Z,4.68
2022-10-19T19:21:44.566Z,4.57
2022-10-19T19:24:50.281Z,4.82
2022-10-19T19:27:52.816Z,4.30
2022-10-19T19:34:05.847Z,4.78
2022-10-19T19:37:11.107Z,4.43
2022-10-19T19:40:14.658Z,4.05
2022-10-19T19:43:20.115Z,4.80
2022-10-19T19:46:22.639Z,13.68
2022-10-19T19:49:26.026Z,7.18
2022-10-19T19:52:28.494Z,4.85
2022-10-19T19:55:38.142Z,4.40
2022-10-19T19:58:42.134Z,4.20
2022-10-19T20:01:47.003Z,4.07
2022-10-19T20:04:49.782Z,3.60
2022-10-19T20:07:53.081Z,4.00
2022-10-19T20:11:00.640Z,3.75
2022-10-19T20:14:03.307Z,3.87
2022-10-19T20:17:06.110Z,3.67
2022-10-19T20:20:10.420Z,3.92
2022-10-19T20:23:13.179Z,3.45
2022-10-19T20:26:18.974Z,3.70
2022-10-19T20:29:22.228Z,3.60
2022-10-19T20:32:26.370Z,3.78
2022-10-19T20:35:29.582Z,3.75
2022-10-19T20:38:33.456Z,3.55
2022-10-19T20:41:36.331Z,3.92
2022-10-19T20:44:39.048Z,3.60
2022-10-19T20:47:41.839Z,3.72
2022-10-19T20:50:44.499Z,3.33
2022-10-19T20:53:49.338Z,3.70
2022-10-19T20:56:52.062Z,3.53
2022-10-19T20:59:54.761Z,3.60
2022-10-19T21:02:57.499Z,3.60
2022-10-19T21:06:08.341Z,4.47
2022-10-19T21:09:12.637Z,3.80
2022-10-19T21:12:15.431Z,3.95
2022-10-19T21:15:18.144Z,3.80
2022-10-19T21:18:20.917Z,3.12
2022-10-19T21:21:27.227Z,3.50
2022-10-19T21:24:32.895Z,3.50
2022-10-19T21:27:35.702Z,3.17
2022-10-19T21:30:38.715Z,4.00
2022-10-19T21:33:41.849Z,3.40
2022-10-19T21:39:47.060Z,3.62
2022-10-19T21:42:49.772Z,3.72
2022-10-19T21:45:52.687Z,4.50
2022-10-19T21:48:56.246Z,4.18
2022-10-19T21:51:58.847Z,4.87
2022-10-19T21:55:01.679Z,5.65
2022-10-19T21:58:05.163Z,4.40
2022-10-19T22:01:08.265Z,4.90
2022-10-19T22:10:17.914Z,3.70
2022-10-19T22:13:20.382Z,3.90
2022-10-19T22:16:24.355Z,3.65
2022-10-19T22:19:26.778Z,3.42
2022-10-19T22:22:29.699Z,3.42
2022-10-19T22:25:33.384Z,3.17
2022-10-19T22:28:36.585Z,3.10
2022-10-19T22:31:39.557Z,3.70
2022-10-19T22:34:42.617Z,3.20
2022-10-19T22:37:45.115Z,3.08
2022-10-19T22:41:44.330Z,3.10
2022-10-19T22:45:05.957Z,3.40
2022-10-19T22:48:09.049Z,3.42
2022-10-19T22:51:11.564Z,3.40
2022-10-19T22:54:15.105Z,3.28
2022-10-19T22:57:17.639Z,3.47
2022-10-19T23:00:21.467Z,3.45
2022-10-19T23:06:27.041Z,3.50
2022-10-19T23:09:29.678Z,3.70
2022-10-19T23:12:32.668Z,3.50
2022-10-19T23:15:35.233Z,3.67
2022-10-19T23:18:41.382Z,3.42
2022-10-19T23:21:43.934Z,3.17
2022-10-19T23:24:46.885Z,3.60
2022-10-19T23:27:49.381Z,3.57
2022-10-19T23:30:52.575Z,3.83
2022-10-19T23:33:55.063Z,3.62
2022-10-19T23:36:58.144Z,3.40
2022-10-19T23:40:01.142Z,3.63
2022-10-19T23:43:04.120Z,3.50
2022-10-19T23:46:06.673Z,4.17
2022-10-19T23:49:09.560Z,3.90
2022-10-19T23:52:11.989Z,3.40
2022-10-19T23:55:14.932Z,3.67
2022-10-19T23:58:17.379Z,3.27
